Pecan, Mississippi
Current Conditions -  °F | °C
As of 9:53 PM on Saturday 25 Oct 2014 (Local Time) from KPQL Reporting Station
Clear Clear  
Wind Chill: 57°   Ceiling: Unl
Heat Index: 57°   Visibility: 7mi
Dew Point: 56°   Wind: 0mph
Humidity: 96%   Direction: NA
Pressure: 30.08"   Gusts: NA
Location:  30.3649°N, 88.5432°W
Report Text: KPQL 260253Z AUTO 00000KT 7SM CLR 14/13 A3008 RMK AO2 SLP187 T01390133 51009 TSNO
Loading
Personal Weather Stations






























Interactive Weather Map
Tropical Storm Tracking
New forecast layout! Learn more

10-Day Weather Forecast

Advertisements
Track Severe Weather on mobile